Time;durP1;ratioP1;P1;durP2;ratioP2;P2;SDS_P1;SDS_P2;PMS_P1;PMS_P2;Temp;Humidity;BMP_temperature;BMP_pressure;BME280_temperature;BME280_humidity;BME280_pressure;Samples;Min_cycle;Max_cycle;Signal;HPM_P1;HPM_P2
2023/04/19 00:00:43;;;;;;;16.67;11.35;;;9.10;74.10;;;;;;5070498;28;20040;-75
2023/04/19 00:03:10;;;;;;;15.38;11.40;;;9.10;74.10;;;;;;5094940;28;20040;-75
2023/04/19 00:05:37;;;;;;;15.13;11.02;;;9.00;74.10;;;;;;5059230;28;20075;-75
2023/04/19 00:08:04;;;;;;;18.27;11.52;;;9.00;74.20;;;;;;5053337;28;20063;-76
2023/04/19 00:10:30;;;;;;;15.68;11.57;;;9.00;74.20;;;;;;5037582;28;20033;-76
2023/04/19 00:12:56;;;;;;;15.98;11.23;;;9.00;74.40;;;;;;5080589;28;20035;-76
2023/04/19 00:15:22;;;;;;;12.88;10.15;;;9.00;74.40;;;;;;5077495;28;20109;-76
2023/04/19 00:17:47;;;;;;;13.93;9.65;;;9.00;74.40;;;;;;5077364;28;20063;-76
2023/04/19 00:20:13;;;;;;;14.18;10.88;;;9.00;74.50;;;;;;5041062;28;20049;-76
2023/04/19 00:22:39;;;;;;;15.50;9.93;;;9.00;74.50;;;;;;5065676;28;20442;-76
2023/04/19 00:25:05;;;;;;;14.32;10.60;;;9.00;74.60;;;;;;5066754;28;20051;-76
2023/04/19 00:27:31;;;;;;;13.45;9.60;;;9.00;74.70;;;;;;5041203;28;20033;-76
2023/04/19 00:29:57;;;;;;;13.70;10.45;;;8.90;74.60;;;;;;5041206;28;20036;-75
2023/04/19 00:32:23;;;;;;;14.93;9.35;;;8.90;74.70;;;;;;5060066;28;20385;-76
2023/04/19 00:34:49;;;;;;;16.60;10.40;;;8.90;74.80;;;;;;5060415;28;20040;-75
2023/04/19 00:37:15;;;;;;;11.65;8.93;;;8.90;74.70;;;;;;5064915;28;20032;-76
2023/04/19 00:39:40;;;;;;;14.38;9.95;;;8.90;74.70;;;;;;5087905;28;20041;-75
2023/04/19 00:42:06;;;;;;;12.00;9.70;;;8.90;74.70;;;;;;5046603;28;20119;-75
2023/04/19 00:44:32;;;;;;;12.82;9.70;;;8.90;74.70;;;;;;5056164;28;20028;-76
2023/04/19 00:46:59;;;;;;;12.45;8.80;;;8.90;74.70;;;;;;5077386;28;20468;-76
2023/04/19 00:49:26;;;;;;;11.40;8.55;;;8.90;74.60;;;;;;5074505;28;20391;-76
2023/04/19 00:51:52;;;;;;;13.15;9.05;;;8.90;74.60;;;;;;5093369;28;20032;-76
2023/04/19 00:54:18;;;;;;;11.93;8.88;;;8.80;74.50;;;;;;5094023;28;20032;-76
2023/04/19 00:56:45;;;;;;;11.43;9.15;;;8.80;74.50;;;;;;5040531;28;20048;-76
2023/04/19 00:59:13;;;;;;;13.73;8.75;;;8.80;74.80;;;;;;5057112;28;20499;-76
2023/04/19 01:01:39;;;;;;;10.45;8.25;;;8.80;74.40;;;;;;5046718;28;20040;-76
2023/04/19 01:04:05;;;;;;;12.10;8.73;;;8.70;74.40;;;;;;5031187;28;20569;-75
2023/04/19 01:06:31;;;;;;;10.48;8.85;;;8.70;74.40;;;;;;5025572;28;20047;-76
2023/04/19 01:08:57;;;;;;;12.02;9.05;;;8.70;74.30;;;;;;5060419;28;20036;-76
2023/04/19 01:11:23;;;;;;;14.70;9.13;;;8.70;74.40;;;;;;5062981;28;20036;-76
2023/04/19 01:13:49;;;;;;;14.73;9.25;;;8.70;74.40;;;;;;5080896;28;20040;-76
2023/04/19 01:16:16;;;;;;;12.15;8.48;;;8.60;74.30;;;;;;5066540;28;20046;-76
2023/04/19 01:18:42;;;;;;;13.38;8.05;;;8.60;74.30;;;;;;5093428;28;20044;-76
2023/04/19 01:21:08;;;;;;;11.90;8.13;;;8.60;74.70;;;;;;5059892;28;20085;-76
2023/04/19 01:23:34;;;;;;;12.68;8.20;;;8.60;74.20;;;;;;5072569;28;20116;-76
2023/04/19 01:26:04;;;;;;;11.05;8.20;;;8.60;74.20;;;;;;5059022;28;20040;-75
2023/04/19 01:28:30;;;;;;;11.82;8.60;;;8.60;74.20;;;;;;5059696;28;20044;-76
2023/04/19 01:30:55;;;;;;;12.43;8.63;;;8.50;74.30;;;;;;5047258;28;20047;-76
2023/04/19 01:33:21;;;;;;;12.18;8.80;;;8.50;74.20;;;;;;5073085;28;20066;-76
2023/04/19 01:35:47;;;;;;;12.80;8.27;;;8.40;74.20;;;;;;5072743;28;20111;-76
2023/04/19 01:38:14;;;;;;;10.27;8.15;;;8.40;74.20;;;;;;5054250;28;20036;-76
2023/04/19 01:40:39;;;;;;;12.52;7.70;;;8.40;74.20;;;;;;5057012;28;20041;-76
2023/04/19 01:43:06;;;;;;;10.80;8.07;;;8.40;74.20;;;;;;5069216;28;20089;-76
2023/04/19 01:45:32;;;;;;;11.52;7.85;;;8.40;74.20;;;;;;5074547;28;20564;-76
2023/04/19 01:48:01;;;;;;;11.05;7.85;;;8.40;74.10;;;;;;5058175;28;20032;-76
2023/04/19 01:50:27;;;;;;;12.20;8.70;;;8.40;74.10;;;;;;5058922;28;20063;-76
2023/04/19 01:52:53;;;;;;;9.13;7.85;;;8.40;74.10;;;;;;5058551;28;20067;-76
2023/04/19 01:55:18;;;;;;;10.05;8.02;;;8.40;74.00;;;;;;5066504;28;20048;-76
2023/04/19 01:57:44;;;;;;;11.43;7.80;;;8.40;73.90;;;;;;5075449;28;20594;-76
2023/04/19 02:00:10;;;;;;;12.57;8.07;;;8.40;73.90;;;;;;5058981;28;20040;-76
2023/04/19 02:02:37;;;;;;;12.15;8.30;;;8.30;73.70;;;;;;5075719;28;20079;-76
2023/04/19 02:05:06;;;;;;;9.93;7.65;;;8.30;73.50;;;;;;5042592;28;20040;-76
2023/04/19 02:07:32;;;;;;;10.93;7.95;;;8.30;73.40;;;;;;5061070;28;20028;-76
2023/04/19 02:10:00;;;;;;;12.25;8.27;;;8.30;73.30;;;;;;5086682;28;20039;-75
2023/04/19 02:12:27;;;;;;;12.57;7.85;;;8.30;73.20;;;;;;5055645;28;20041;-75
2023/04/19 02:14:56;;;;;;;10.20;7.82;;;8.30;73.00;;;;;;5070421;28;20032;-76
2023/04/19 02:17:25;;;;;;;13.18;8.65;;;8.30;72.70;;;;;;5022951;28;20043;-76
2023/04/19 02:19:51;;;;;;;11.93;7.68;;;8.30;72.50;;;;;;5044980;28;20044;-76
2023/04/19 02:22:17;;;;;;;11.32;7.82;;;8.30;72.40;;;;;;5059183;28;20097;-76
2023/04/19 02:24:43;;;;;;;10.55;7.38;;;8.30;72.20;;;;;;5068803;28;20032;-76
2023/04/19 02:27:09;;;;;;;11.88;7.80;;;8.30;72.20;;;;;;5058739;28;20047;-76
2023/04/19 02:29:35;;;;;;;10.00;7.10;;;8.30;71.80;;;;;;5041942;28;20071;-76
2023/04/19 02:32:04;;;;;;;11.68;7.55;;;8.30;71.50;;;;;;5055211;28;20131;-75
2023/04/19 02:34:31;;;;;;;12.05;8.07;;;8.20;71.30;;;;;;5075119;28;20498;-76
2023/04/19 02:36:56;;;;;;;10.70;7.53;;;8.20;71.10;;;;;;5087147;28;20040;-76
2023/04/19 02:39:22;;;;;;;12.13;7.22;;;8.20;71.10;;;;;;5058319;28;20148;-76
2023/04/19 02:41:49;;;;;;;12.65;8.00;;;8.20;71.10;;;;;;5041527;28;20047;-76
2023/04/19 02:44:15;;;;;;;10.80;7.68;;;8.20;71.00;;;;;;5067322;28;20071;-75
2023/04/19 02:46:40;;;;;;;9.70;6.90;;;8.20;70.90;;;;;;5074941;28;20479;-76
2023/04/19 02:49:06;;;;;;;10.88;7.50;;;8.20;70.90;;;;;;5055667;28;20068;-75
2023/04/19 02:51:32;;;;;;;12.30;8.30;;;8.10;70.80;;;;;;5047060;28;20048;-75
2023/04/19 02:53:58;;;;;;;11.30;8.00;;;8.10;70.80;;;;;;5064529;28;20069;-76
2023/04/19 02:56:23;;;;;;;14.18;8.77;;;8.10;70.90;;;;;;5058332;28;20048;-76
2023/04/19 02:58:49;;;;;;;13.70;8.50;;;8.00;70.90;;;;;;5058210;28;20032;-76
2023/04/19 03:01:15;;;;;;;13.15;8.77;;;8.00;71.10;;;;;;5057131;28;20043;-75
2023/04/19 03:03:40;;;;;;;14.32;8.52;;;8.00;71.20;;;;;;5087756;28;20040;-76
2023/04/19 03:06:07;;;;;;;11.02;8.50;;;7.90;71.20;;;;;;5041834;28;20431;-75
2023/04/19 03:08:33;;;;;;;12.88;9.48;;;7.90;71.20;;;;;;5050006;28;20048;-76
2023/04/19 03:10:59;;;;;;;14.55;8.98;;;7.90;71.20;;;;;;5052294;28;20033;-76
2023/04/19 03:13:24;;;;;;;12.07;8.95;;;7.90;71.20;;;;;;5061109;28;20036;-76
2023/04/19 03:15:50;;;;;;;12.65;9.15;;;7.80;71.30;;;;;;5044394;28;20442;-76
2023/04/19 03:18:16;;;;;;;13.55;9.88;;;7.80;71.30;;;;;;5041832;28;20079;-80
2023/04/19 03:20:42;;;;;;;13.20;9.25;;;7.70;71.40;;;;;;5040304;28;20492;-80
2023/04/19 03:23:08;;;;;;;13.00;9.90;;;7.70;71.50;;;;;;5042179;28;20078;-80
2023/04/19 03:25:33;;;;;;;14.20;9.43;;;7.70;71.60;;;;;;5075107;28;20537;-80
2023/04/19 03:27:59;;;;;;;14.40;10.10;;;7.60;71.60;;;;;;5075086;28;20040;-80
2023/04/19 03:30:25;;;;;;;15.43;9.60;;;7.60;71.80;;;;;;5092270;28;20051;-80
2023/04/19 03:32:51;;;;;;;14.45;10.13;;;7.50;71.70;;;;;;5091683;28;20431;-79
2023/04/19 03:35:16;;;;;;;14.48;9.02;;;7.50;71.90;;;;;;5039241;28;20123;-80
2023/04/19 03:37:42;;;;;;;17.15;9.82;;;7.50;72.10;;;;;;5038505;28;20117;-80
2023/04/19 03:40:08;;;;;;;14.38;9.50;;;7.50;72.10;;;;;;5050478;28;20507;-80
2023/04/19 03:42:34;;;;;;;15.85;10.85;;;7.40;72.10;;;;;;5054875;28;20083;-80
2023/04/19 03:45:00;;;;;;;14.90;9.65;;;7.40;72.10;;;;;;5071801;28;20043;-80
2023/04/19 03:47:26;;;;;;;13.13;9.60;;;7.40;72.20;;;;;;5081705;28;20029;-80
2023/04/19 03:49:52;;;;;;;13.35;9.73;;;7.30;72.10;;;;;;5041482;28;20426;-79
2023/04/19 03:52:17;;;;;;;13.93;9.77;;;7.30;72.30;;;;;;5049984;28;20391;-80
2023/04/19 03:54:44;;;;;;;15.45;9.50;;;7.30;72.30;;;;;;5061872;28;20074;-80
2023/04/19 03:57:12;;;;;;;15.05;10.27;;;7.20;72.20;;;;;;5095782;28;20467;-79
2023/04/19 03:59:37;;;;;;;13.02;9.55;;;7.20;72.30;;;;;;5056133;28;20048;-80
2023/04/19 04:02:04;;;;;;;12.18;9.55;;;7.20;72.20;;;;;;5058422;28;20036;-79
2023/04/19 04:04:30;;;;;;;16.02;10.70;;;7.10;72.20;;;;;;5042001;28;20040;-79
2023/04/19 04:06:56;;;;;;;13.15;10.02;;;7.10;72.20;;;;;;5041692;28;20369;-79
2023/04/19 04:09:22;;;;;;;15.40;10.30;;;7.10;72.10;;;;;;5059465;28;20463;-80
2023/04/19 04:11:47;;;;;;;14.93;9.77;;;7.00;72.10;;;;;;5095012;28;20443;-79
2023/04/19 04:14:13;;;;;;;13.40;9.40;;;7.00;72.20;;;;;;5061414;28;20545;-79
2023/04/19 04:16:39;;;;;;;14.10;10.07;;;7.00;72.20;;;;;;5060077;28;20118;-79
2023/04/19 04:19:05;;;;;;;14.13;9.35;;;6.90;72.20;;;;;;5045138;28;20574;-79
2023/04/19 04:21:30;;;;;;;15.50;10.65;;;6.90;72.10;;;;;;5091307;28;20530;-79
2023/04/19 04:23:56;;;;;;;12.52;9.07;;;6.90;72.00;;;;;;5044904;28;20035;-79
2023/04/19 04:26:24;;;;;;;14.07;8.93;;;6.90;71.90;;;;;;5078173;28;20036;-79
2023/04/19 04:28:50;;;;;;;13.48;9.18;;;6.90;71.80;;;;;;5061487;28;20047;-79
2023/04/19 04:31:19;;;;;;;15.07;9.60;;;6.80;71.70;;;;;;5077759;28;20036;-79
2023/04/19 04:33:45;;;;;;;14.50;8.68;;;6.80;71.70;;;;;;5029139;28;20039;-79
2023/04/19 04:36:11;;;;;;;12.82;8.65;;;6.80;71.50;;;;;;5077644;28;20047;-79
2023/04/19 04:38:37;;;;;;;12.75;8.65;;;6.80;71.50;;;;;;5044592;28;20063;-79
2023/04/19 04:41:03;;;;;;;11.65;8.48;;;6.80;71.50;;;;;;5060942;28;20054;-79
2023/04/19 04:43:28;;;;;;;14.82;9.50;;;6.80;71.30;;;;;;5062373;28;20076;-80
2023/04/19 04:45:56;;;;;;;13.85;8.88;;;6.70;71.10;;;;;;5044276;28;20043;-80
2023/04/19 04:48:22;;;;;;;11.25;8.32;;;6.70;71.00;;;;;;5061122;28;20040;-79
2023/04/19 04:50:48;;;;;;;12.15;7.28;;;6.70;71.00;;;;;;5065931;28;20093;-79
2023/04/19 04:53:14;;;;;;;10.15;7.25;;;6.60;70.80;;;;;;5070302;28;20426;-79
2023/04/19 04:55:40;;;;;;;12.65;8.05;;;6.60;70.70;;;;;;5094178;28;20044;-79
2023/04/19 04:58:06;;;;;;;10.45;7.50;;;6.60;70.60;;;;;;5077289;28;20050;-80
2023/04/19 05:00:32;;;;;;;10.75;7.80;;;6.60;70.60;;;;;;5086779;28;20043;-80
2023/04/19 05:02:58;;;;;;;10.65;7.13;;;6.60;70.60;;;;;;5077050;28;20044;-80
2023/04/19 05:05:25;;;;;;;13.07;7.45;;;6.60;70.70;;;;;;5094179;28;20044;-80
2023/04/19 05:07:50;;;;;;;10.50;7.90;;;6.60;70.70;;;;;;5048125;28;20036;-80
2023/04/19 05:10:16;;;;;;;11.43;7.10;;;6.60;70.80;;;;;;5053687;28;20032;-80
2023/04/19 05:12:42;;;;;;;12.32;7.22;;;6.60;70.80;;;;;;5076891;28;20036;-80
2023/04/19 05:15:08;;;;;;;14.85;7.45;;;6.70;70.70;;;;;;5073806;28;20119;-80
2023/04/19 05:17:33;;;;;;;12.32;7.38;;;6.70;70.40;;;;;;5067749;28;20043;-80
2023/04/19 05:19:59;;;;;;;10.93;7.30;;;6.70;70.20;;;;;;5056960;28;20032;-80
2023/04/19 05:22:26;;;;;;;11.85;7.57;;;6.80;70.10;;;;;;5056989;28;20044;-80
2023/04/19 05:24:51;;;;;;;12.10;8.32;;;6.80;69.90;;;;;;5059590;28;20043;-80
2023/04/19 05:27:17;;;;;;;11.90;7.28;;;6.80;69.80;;;;;;5076903;28;20388;-80
2023/04/19 05:29:43;;;;;;;11.13;7.15;;;6.80;69.60;;;;;;5076760;28;20043;-81
2023/04/19 05:32:09;;;;;;;13.13;7.05;;;6.80;69.60;;;;;;5069481;28;20052;-81
2023/04/19 05:34:35;;;;;;;11.05;6.75;;;6.90;69.50;;;;;;5051745;28;20044;-80
2023/04/19 05:37:02;;;;;;;9.00;6.82;;;6.90;69.30;;;;;;5073557;28;20071;-80
2023/04/19 05:39:28;;;;;;;9.60;6.60;;;6.90;69.30;;;;;;5040017;28;20045;-81
2023/04/19 05:41:54;;;;;;;8.13;6.18;;;7.00;69.10;;;;;;5056776;28;20131;-80
2023/04/19 05:44:19;;;;;;;10.40;6.68;;;7.00;68.70;;;;;;5060242;28;20032;-81
2023/04/19 05:46:45;;;;;;;11.48;6.40;;;7.10;68.40;;;;;;5059375;28;20131;-80
2023/04/19 05:49:11;;;;;;;9.52;6.50;;;7.10;68.20;;;;;;5043320;28;20040;-81
2023/04/19 05:51:36;;;;;;;7.03;5.38;;;7.20;68.00;;;;;;5059765;28;20692;-80
2023/04/19 05:54:02;;;;;;;8.70;6.18;;;7.30;67.50;;;;;;5093090;28;20509;-81
2023/04/19 05:56:28;;;;;;;8.50;5.70;;;7.40;67.30;;;;;;5089984;28;20040;-81
2023/04/19 05:58:55;;;;;;;9.35;6.20;;;7.50;66.90;;;;;;5059929;28;20411;-80
2023/04/19 06:01:21;;;;;;;9.02;6.43;;;7.60;66.50;;;;;;5044035;28;20070;-81
2023/04/19 06:03:51;;;;;;;11.15;5.70;;;7.70;66.00;;;;;;5055735;28;20713;-80
2023/04/19 06:06:18;;;;;;;11.45;5.30;;;7.90;65.40;;;;;;5055549;28;20127;-80
2023/04/19 06:08:43;;;;;;;6.90;4.85;;;8.00;64.30;;;;;;5092778;28;20069;-80
2023/04/19 06:11:09;;;;;;;8.55;5.75;;;8.10;63.70;;;;;;5058779;28;20032;-80
2023/04/19 06:13:35;;;;;;;7.82;5.53;;;8.30;63.30;;;;;;5059670;28;20050;-80
2023/04/19 06:16:02;;;;;;;10.02;5.07;;;8.40;62.70;;;;;;5092632;28;20399;-80
2023/04/19 06:18:30;;;;;;;6.63;4.90;;;8.50;61.00;;;;;;5092715;28;20050;-80
2023/04/19 06:20:56;;;;;;;8.85;5.15;;;8.60;60.10;;;;;;5042930;28;20134;-80
2023/04/19 06:23:22;;;;;;;8.35;5.43;;;8.70;60.40;;;;;;5075844;28;20054;-80
2023/04/19 06:25:48;;;;;;;8.10;4.80;;;8.90;60.30;;;;;;5059056;28;20059;-80
2023/04/19 06:28:14;;;;;;;7.30;4.70;;;9.10;59.10;;;;;;5059152;28;20040;-80
2023/04/19 06:30:40;;;;;;;8.27;3.97;;;9.20;57.50;;;;;;5059114;28;20558;-80
2023/04/19 06:33:05;;;;;;;7.78;4.20;;;9.30;56.80;;;;;;5058710;28;20135;-80
2023/04/19 06:35:31;;;;;;;6.45;4.22;;;9.40;56.40;;;;;;5042365;28;20122;-80
2023/04/19 06:38:00;;;;;;;5.75;3.70;;;9.50;56.40;;;;;;5042688;28;20442;-80
2023/04/19 06:40:28;;;;;;;5.57;4.00;;;9.60;56.00;;;;;;5075478;28;20047;-80
2023/04/19 06:42:54;;;;;;;5.75;4.10;;;9.70;54.50;;;;;;5042334;28;20479;-80
2023/04/19 06:45:20;;;;;;;6.45;4.00;;;9.80;54.00;;;;;;5075279;28;20076;-80
2023/04/19 06:47:46;;;;;;;6.03;4.13;;;9.80;53.90;;;;;;5075324;28;20039;-80
2023/04/19 06:50:12;;;;;;;8.20;3.92;;;9.90;54.10;;;;;;5058752;28;20028;-80
2023/04/19 06:52:38;;;;;;;9.13;3.88;;;10.00;53.70;;;;;;5058697;28;20039;-80
2023/04/19 06:55:05;;;;;;;4.93;3.55;;;10.10;53.10;;;;;;5058627;28;20047;-80
2023/04/19 06:57:31;;;;;;;7.28;4.38;;;10.10;52.50;;;;;;5075435;28;20403;-80
2023/04/19 06:59:57;;;;;;;7.85;4.20;;;10.10;53.10;;;;;;5075399;28;20036;-80
2023/04/19 07:02:23;;;;;;;6.03;3.50;;;10.20;52.90;;;;;;5075455;28;20600;-80
2023/04/19 07:04:49;;;;;;;5.93;3.42;;;10.30;52.40;;;;;;5075292;28;20040;-80
2023/04/19 07:07:15;;;;;;;5.45;3.45;;;10.40;52.60;;;;;;5075007;28;20044;-80
2023/04/19 07:09:41;;;;;;;5.95;3.85;;;10.40;51.10;;;;;;5058704;28;20032;-80
2023/04/19 07:12:07;;;;;;;5.20;3.80;;;10.40;50.70;;;;;;5058366;28;20067;-80
2023/04/19 07:14:32;;;;;;;5.43;3.72;;;10.50;51.30;;;;;;5056974;28;20035;-80
2023/04/19 07:16:58;;;;;;;6.43;3.90;;;10.50;50.50;;;;;;5075244;28;20440;-80
2023/04/19 07:19:25;;;;;;;5.60;3.50;;;10.60;51.30;;;;;;5058460;28;20043;-80
2023/04/19 07:21:50;;;;;;;9.30;3.22;;;10.60;51.20;;;;;;5075344;28;20055;-80
2023/04/19 07:24:16;;;;;;;4.88;3.30;;;10.70;49.90;;;;;;5069118;28;20044;-80
2023/04/19 07:26:42;;;;;;;4.80;3.38;;;10.80;49.20;;;;;;5081516;28;20067;-79
2023/04/19 07:29:08;;;;;;;5.63;3.20;;;10.80;49.50;;;;;;5095961;28;20059;-79
2023/04/19 07:31:34;;;;;;;4.28;3.10;;;10.80;49.70;;;;;;5098946;28;20055;-80
2023/04/19 07:34:00;;;;;;;4.68;2.95;;;10.80;48.90;;;;;;5053527;28;20125;-78
2023/04/19 07:36:26;;;;;;;6.43;2.70;;;10.90;48.90;;;;;;5058855;28;20495;-79
2023/04/19 07:38:52;;;;;;;6.28;3.35;;;10.90;49.10;;;;;;5058957;28;20045;-79
2023/04/19 07:41:18;;;;;;;5.97;3.08;;;11.00;49.40;;;;;;5042212;28;20040;-78
2023/04/19 07:43:44;;;;;;;5.30;2.60;;;11.00;48.80;;;;;;5029001;28;20514;-78
2023/04/19 07:46:12;;;;;;;6.07;2.47;;;11.00;48.00;;;;;;5041829;28;20040;-78
2023/04/19 07:48:37;;;;;;;4.20;2.10;;;11.10;48.00;;;;;;5042129;28;20121;-79
2023/04/19 07:51:18;;;;;;;3.78;2.60;;;11.10;46.10;;;;;;5025476;28;20500;-78
2023/04/19 07:53:45;;;;;;;3.78;2.10;;;11.20;45.80;;;;;;5058422;28;20044;-78
2023/04/19 07:56:11;;;;;;;3.95;2.17;;;11.20;44.70;;;;;;5058432;28;20040;-79
2023/04/19 07:58:38;;;;;;;3.00;2.17;;;11.20;46.00;;;;;;5041889;28;20051;-79
2023/04/19 08:01:04;;;;;;;4.63;2.20;;;11.20;46.30;;;;;;5058498;28;20045;-79
2023/04/19 08:03:32;;;;;;;3.75;1.85;;;11.30;46.30;;;;;;5071392;28;20398;-79
2023/04/19 08:06:00;;;;;;;3.30;1.90;;;11.30;46.40;;;;;;5081563;28;20097;-78
2023/04/19 08:08:26;;;;;;;4.55;2.20;;;11.40;46.30;;;;;;5073176;28;20039;-78
2023/04/19 08:10:54;;;;;;;4.00;1.80;;;11.50;44.90;;;;;;5058466;28;20403;-78
2023/04/19 08:13:20;;;;;;;5.70;2.10;;;11.50;44.40;;;;;;5058068;28;20045;-78
2023/04/19 08:15:46;;;;;;;4.78;2.17;;;11.50;43.80;;;;;;5041791;28;20400;-79
2023/04/19 08:18:11;;;;;;;3.75;2.45;;;11.50;44.40;;;;;;5041641;28;20052;-79
2023/04/19 08:20:37;;;;;;;4.95;2.35;;;11.60;45.10;;;;;;5058053;28;20190;-79
2023/04/19 08:23:05;;;;;;;3.50;2.10;;;11.70;45.70;;;;;;5041775;28;20055;-79
2023/04/19 08:25:31;;;;;;;4.35;2.20;;;11.80;45.00;;;;;;5025260;28;20040;-79
2023/04/19 08:27:57;;;;;;;3.90;1.88;;;11.80;43.80;;;;;;5058207;28;20071;-79
2023/04/19 08:30:23;;;;;;;4.40;2.17;;;11.90;43.00;;;;;;5041333;28;20572;-79
2023/04/19 08:32:49;;;;;;;3.60;2.28;;;11.90;43.90;;;;;;5057090;28;20053;-79
2023/04/19 08:35:15;;;;;;;3.70;2.15;;;12.00;42.90;;;;;;5039968;28;20048;-79
2023/04/19 08:37:41;;;;;;;5.05;2.30;;;12.10;43.70;;;;;;5056694;28;20045;-79
2023/04/19 08:40:09;;;;;;;5.68;2.22;;;12.20;42.50;;;;;;5040337;28;20036;-79
2023/04/19 08:42:34;;;;;;;4.05;2.03;;;12.20;42.80;;;;;;5040186;28;20506;-79
2023/04/19 08:45:04;;;;;;;3.70;2.10;;;12.30;41.60;;;;;;5087911;28;20028;-79
2023/04/19 08:47:33;;;;;;;6.65;2.40;;;12.30;39.80;;;;;;5093472;28;20473;-79
2023/04/19 08:50:04;;;;;;;6.97;2.30;;;12.40;39.50;;;;;;5093291;28;20118;-78
2023/04/19 08:52:33;;;;;;;4.10;2.50;;;12.40;38.80;;;;;;5093179;28;20090;-78
2023/04/19 08:55:05;;;;;;;6.32;2.90;;;12.40;38.70;;;;;;5092928;28;20043;-78
2023/04/19 08:57:31;;;;;;;4.55;2.20;;;12.40;38.90;;;;;;5093234;28;20123;-78
2023/04/19 09:00:04;;;;;;;4.32;2.55;;;12.50;38.80;;;;;;5093264;28;20036;-78
2023/04/19 09:02:47;;;;;;;5.07;2.92;;;12.50;39.70;;;;;;5092618;28;20040;-78
2023/04/19 09:05:14;;;;;;;5.32;2.42;;;12.50;40.30;;;;;;5092741;28;20093;-78
2023/04/19 09:07:41;;;;;;;4.47;2.58;;;12.60;41.00;;;;;;5076611;28;20043;-79
2023/04/19 09:10:08;;;;;;;5.00;2.50;;;12.70;39.70;;;;;;5093179;28;20101;-78
2023/04/19 09:12:34;;;;;;;4.28;2.45;;;12.80;39.20;;;;;;5093258;28;20581;-78
2023/04/19 09:15:03;;;;;;;5.63;2.78;;;12.90;38.50;;;;;;5092549;28;20170;-78
2023/04/19 09:17:30;;;;;;;5.07;2.45;;;12.90;38.10;;;;;;5092991;28;20047;-79
2023/04/19 09:19:56;;;;;;;4.90;2.47;;;12.90;37.90;;;;;;5076089;28;20048;-78
2023/04/19 09:22:22;;;;;;;4.28;2.55;;;12.90;37.30;;;;;;5092932;28;20051;-77
2023/04/19 09:24:48;;;;;;;6.22;2.70;;;13.00;37.60;;;;;;5092530;28;20048;-78
2023/04/19 09:27:30;;;;;;;5.10;2.50;;;13.00;38.00;;;;;;5092612;28;20036;-78
2023/04/19 09:29:58;;;;;;;4.38;2.45;;;13.10;38.40;;;;;;5092741;28;20118;-78
2023/04/19 09:32:24;;;;;;;3.63;2.15;;;13.10;37.60;;;;;;5036907;28;1111540;-78
2023/04/19 09:34:52;;;;;;;8.63;3.88;;;13.10;36.90;;;;;;5076190;28;20051;-78
2023/04/19 09:37:17;;;;;;;4.93;2.28;;;13.20;37.90;;;;;;5076682;28;20125;-78
2023/04/19 09:39:46;;;;;;;5.88;2.38;;;13.20;37.30;;;;;;5077246;28;20032;-79
2023/04/19 09:42:12;;;;;;;6.07;2.05;;;13.30;37.10;;;;;;5093050;28;20051;-79
2023/04/19 09:44:38;;;;;;;4.40;2.72;;;13.40;37.60;;;;;;5043395;28;20096;-78
2023/04/19 09:47:28;;;;;;;4.63;2.28;;;13.50;37.20;;;;;;5075407;28;20502;-78
2023/04/19 09:50:10;;;;;;;7.22;2.20;;;13.60;36.10;;;;;;5076759;28;20032;-78
2023/04/19 09:52:37;;;;;;;5.18;2.22;;;13.60;35.30;;;;;;5074951;28;20098;-78
2023/04/19 09:55:05;;;;;;;4.57;2.30;;;13.60;35.90;;;;;;5063797;28;20043;-78
2023/04/19 09:57:32;;;;;;;4.72;2.05;;;13.70;34.60;;;;;;5059799;28;20048;-78
2023/04/19 09:59:59;;;;;;;4.20;2.45;;;13.70;35.50;;;;;;5076262;28;20131;-78
2023/04/19 10:02:33;;;;;;;7.57;2.05;;;13.80;34.70;;;;;;5076412;28;20040;-78
2023/04/19 10:04:59;;;;;;;6.60;2.80;;;13.80;34.00;;;;;;5077042;28;20383;-78
2023/04/19 10:07:26;;;;;;;3.67;2.00;;;13.90;34.00;;;;;;5060456;28;20044;-78
2023/04/19 10:09:56;;;;;;;2.20;1.65;;;13.90;33.90;;;;;;5056213;28;20044;-78
2023/04/19 10:12:27;;;;;;;3.28;1.83;;;13.80;33.70;;;;;;5039774;28;20076;-78
2023/04/19 10:14:59;;;;;;;4.03;2.00;;;13.80;35.20;;;;;;5092824;28;20046;-78
2023/04/19 10:17:25;;;;;;;5.20;2.05;;;13.90;36.10;;;;;;5092868;28;20042;-78
2023/04/19 10:20:00;;;;;;;2.85;1.85;;;14.00;36.50;;;;;;5075790;28;20101;-78
2023/04/19 10:22:27;;;;;;;3.17;2.00;;;14.10;36.20;;;;;;5083799;28;20040;-78
2023/04/19 10:25:15;;;;;;;3.15;2.00;;;14.20;35.90;;;;;;5072617;28;20376;-77
2023/04/19 10:27:45;;;;;;;3.53;2.00;;;14.30;36.20;;;;;;5092523;28;20047;-77
2023/04/19 10:30:25;;;;;;;3.50;1.92;;;14.30;35.70;;;;;;5092580;28;20055;-78
2023/04/19 10:32:56;;;;;;;3.78;2.30;;;14.30;35.30;;;;;;5092037;28;20139;-78
2023/04/19 10:35:25;;;;;;;4.00;1.85;;;14.30;36.20;;;;;;5075334;28;20069;-77
2023/04/19 10:38:15;;;;;;;2.67;1.60;;;14.30;36.60;;;;;;5075131;28;20483;-77
2023/04/19 10:40:59;;;;;;;4.90;1.98;;;14.50;35.50;;;;;;5092258;28;20123;-78
2023/04/19 10:43:35;;;;;;;;;;;14.50;36.20;;;;;;5075411;28;20515;-78
2023/04/19 10:46:05;;;;;;;4.97;1.55;;;14.50;34.90;;;;;;5092045;28;19927;-78
2023/04/19 10:48:34;;;;;;;2.55;1.65;;;14.50;34.60;;;;;;5091988;28;20127;-78
2023/04/19 10:51:14;;;;;;;2.22;1.50;;;14.50;33.50;;;;;;5059384;28;20040;-78
2023/04/19 10:53:49;;;;;;;3.47;1.88;;;14.50;33.00;;;;;;5058217;28;20126;-78
2023/04/19 10:56:17;;;;;;;3.03;1.67;;;14.50;33.90;;;;;;5084766;28;20055;-78
2023/04/19 10:59:04;;;;;;;3.22;1.67;;;14.50;34.60;;;;;;5091977;28;20392;-77
2023/04/19 11:01:42;;;;;;;5.25;1.90;;;14.60;33.40;;;;;;5075174;28;20044;-78
2023/04/19 11:04:08;;;;;;;3.17;1.83;;;14.60;33.50;;;;;;5091083;28;20120;-77
2023/04/19 11:06:36;;;;;;;2.88;1.52;;;14.60;33.00;;;;;;5092162;28;20044;-77
2023/04/19 11:09:04;;;;;;;3.13;1.55;;;14.60;33.40;;;;;;5092236;28;20046;-78
2023/04/19 11:11:36;;;;;;;3.38;1.48;;;14.70;33.70;;;;;;5058897;28;20039;-78
2023/04/19 11:14:07;;;;;;;2.70;1.58;;;14.70;33.80;;;;;;5075071;28;20151;-78
2023/04/19 11:16:33;;;;;;;2.88;1.52;;;14.80;33.10;;;;;;5075486;28;20402;-78
2023/04/19 11:18:58;;;;;;;2.15;1.15;;;14.80;34.30;;;;;;5057054;28;20102;-78
2023/04/19 11:21:26;;;;;;;3.20;1.73;;;14.90;33.60;;;;;;5061349;28;20500;-77
2023/04/19 11:24:12;;;;;;;3.47;1.33;;;15.00;33.70;;;;;;5092001;28;20127;-77
2023/04/19 11:26:38;;;;;;;4.45;1.73;;;15.00;33.60;;;;;;5091299;28;20056;-77
2023/04/19 11:29:05;;;;;;;4.78;1.40;;;15.00;34.40;;;;;;5076948;28;20037;-78
2023/04/19 11:31:35;;;;;;;3.55;1.27;;;15.00;34.70;;;;;;5062457;28;20043;-77
2023/04/19 11:34:02;;;;;;;2.83;1.30;;;15.10;34.60;;;;;;5083305;28;20057;-78
2023/04/19 11:36:28;;;;;;;4.28;1.75;;;15.10;35.00;;;;;;5095163;28;20050;-78
2023/04/19 11:38:54;;;;;;;4.88;1.40;;;15.20;35.60;;;;;;5078628;28;20557;-78
2023/04/19 11:41:19;;;;;;;4.10;1.83;;;15.30;35.60;;;;;;5076100;28;20041;-78
2023/04/19 11:43:45;;;;;;;2.10;1.30;;;15.30;34.90;;;;;;5086967;28;20552;-78
2023/04/19 11:46:12;;;;;;;4.35;1.30;;;15.40;34.30;;;;;;5094549;28;20073;-78
2023/04/19 11:48:58;;;;;;;5.97;1.52;;;15.40;35.30;;;;;;5078296;28;20036;-79
2023/04/19 11:51:25;;;;;;;3.70;1.23;;;15.50;34.20;;;;;;5089525;28;20086;-79
2023/04/19 11:53:51;;;;;;;3.35;1.33;;;15.50;34.00;;;;;;5075462;28;20075;-79
2023/04/19 11:56:17;;;;;;;2.95;1.58;;;15.50;34.00;;;;;;5040556;28;20464;-78
2023/04/19 11:58:49;;;;;;;4.28;1.15;;;15.50;34.10;;;;;;5071306;28;20051;-78
2023/04/19 12:01:21;;;;;;;3.55;1.63;;;15.50;33.90;;;;;;5083368;28;20539;-78
2023/04/19 12:03:49;;;;;;;3.58;1.50;;;15.40;34.40;;;;;;5067814;28;20444;-78
2023/04/19 12:06:24;;;;;;;2.78;1.17;;;15.40;34.70;;;;;;5094822;28;20039;-78
2023/04/19 12:08:51;;;;;;;2.45;1.20;;;15.40;34.30;;;;;;5077912;28;20036;-78
2023/04/19 12:11:23;;;;;;;2.45;1.35;;;15.30;33.20;;;;;;5068520;28;20085;-78
2023/04/19 12:14:11;;;;;;;3.63;1.60;;;15.30;33.30;;;;;;5064169;28;20040;-81
2023/04/19 12:16:37;;;;;;;1.92;1.42;;;15.30;35.20;;;;;;5058384;28;20044;-81
2023/04/19 12:19:19;;;;;;;2.92;1.58;;;15.20;34.20;;;;;;5041643;28;20127;-81
2023/04/19 12:21:47;;;;;;;3.38;1.40;;;15.20;33.90;;;;;;5058157;28;20045;-81
2023/04/19 12:24:16;;;;;;;2.40;1.30;;;15.20;34.40;;;;;;5058063;28;20036;-81
2023/04/19 12:26:56;;;;;;;2.00;1.23;;;15.20;33.90;;;;;;5041385;28;20045;-81
2023/04/19 12:29:22;;;;;;;2.55;1.52;;;15.20;33.90;;;;;;5058402;28;20123;-80
2023/04/19 12:31:47;;;;;;;3.30;1.52;;;15.20;34.90;;;;;;5041175;28;20511;-80
2023/04/19 12:34:13;;;;;;;3.22;1.58;;;15.20;34.90;;;;;;5057762;28;20052;-80
2023/04/19 12:36:39;;;;;;;2.50;1.55;;;15.20;35.00;;;;;;5041246;28;20045;-80
2023/04/19 12:39:04;;;;;;;3.08;1.77;;;15.20;35.00;;;;;;5025002;28;20052;-81
2023/04/19 12:41:30;;;;;;;4.03;1.60;;;15.20;35.70;;;;;;5057991;28;20051;-80
2023/04/19 12:43:56;;;;;;;5.57;2.22;;;15.20;36.10;;;;;;5058136;28;20534;-80
2023/04/19 12:46:22;;;;;;;3.20;2.00;;;15.20;36.60;;;;;;5057742;28;20044;-81
2023/04/19 12:48:47;;;;;;;4.28;1.88;;;15.30;36.40;;;;;;5041074;28;20507;-81